createdAt,value
2017-12-30T00:02:23.802Z,90.60
2017-12-30T00:04:52.059Z,90.30
2017-12-30T00:07:19.632Z,90.30
2017-12-30T00:09:47.756Z,90.30
2017-12-30T00:12:15.317Z,90.20
2017-12-30T00:14:42.859Z,90.10
2017-12-30T00:17:10.405Z,90.00
2017-12-30T00:19:37.936Z,89.80
2017-12-30T00:22:05.923Z,89.70
2017-12-30T00:24:33.872Z,89.60
2017-12-30T00:27:01.796Z,89.60
2017-12-30T00:29:30.121Z,89.50
2017-12-30T00:31:57.619Z,89.40
2017-12-30T00:34:25.176Z,89.20
2017-12-30T00:36:53.114Z,89.00
2017-12-30T00:39:21.068Z,88.90
2017-12-30T00:41:49.007Z,88.90
2017-12-30T00:44:16.915Z,88.80
2017-12-30T00:46:44.472Z,88.80
2017-12-30T00:49:12.015Z,88.70
2017-12-30T00:51:39.960Z,88.60
2017-12-30T00:54:07.489Z,88.60
2017-12-30T00:56:34.986Z,88.60
2017-12-30T00:59:02.878Z,88.50
2017-12-30T01:01:30.432Z,88.40
2017-12-30T01:03:58.372Z,88.40
2017-12-30T01:06:25.900Z,88.30
2017-12-30T01:08:53.782Z,88.40
2017-12-30T01:11:21.298Z,88.40
2017-12-30T01:13:48.795Z,88.40
2017-12-30T01:16:16.698Z,88.30
2017-12-30T01:18:44.207Z,88.20
2017-12-30T01:21:11.734Z,88.20
2017-12-30T01:23:39.636Z,88.10
2017-12-30T01:26:07.520Z,88.00
2017-12-30T01:28:35.441Z,88.00
2017-12-30T01:31:02.943Z,87.80
2017-12-30T01:33:30.846Z,87.80
2017-12-30T01:35:58.734Z,87.80
2017-12-30T01:38:26.241Z,87.80
2017-12-30T01:40:53.730Z,87.80
2017-12-30T01:43:21.650Z,87.80
2017-12-30T01:45:49.142Z,87.70
2017-12-30T01:48:16.670Z,87.70
2017-12-30T01:50:44.944Z,87.80
2017-12-30T01:53:12.484Z,87.70
2017-12-30T01:55:40.007Z,87.70
2017-12-30T01:58:07.899Z,87.60
2017-12-30T02:00:35.401Z,87.60
2017-12-30T02:03:02.894Z,87.60
2017-12-30T02:05:30.406Z,87.60
2017-12-30T02:07:58.294Z,87.60
2017-12-30T02:10:26.211Z,87.40
2017-12-30T02:12:53.702Z,87.50
2017-12-30T02:15:21.225Z,87.50
2017-12-30T02:17:49.274Z,87.50
2017-12-30T02:20:16.762Z,87.50
2017-12-30T02:22:44.670Z,87.40
2017-12-30T02:25:12.566Z,87.30
2017-12-30T02:27:41.223Z,87.40
2017-12-30T02:30:08.711Z,87.40
2017-12-30T02:32:36.225Z,87.40
2017-12-30T02:35:04.113Z,87.40
2017-12-30T02:37:31.634Z,87.50
2017-12-30T02:39:59.523Z,87.40
2017-12-30T02:42:27.050Z,87.40
2017-12-30T02:44:54.948Z,87.30
2017-12-30T02:47:22.442Z,87.40
2017-12-30T02:49:49.953Z,87.40
2017-12-30T02:52:17.467Z,87.40
2017-12-30T02:54:44.995Z,87.40
2017-12-30T02:57:12.894Z,87.20
2017-12-30T02:59:40.802Z,87.20
2017-12-30T03:02:08.292Z,87.20
2017-12-30T03:04:35.833Z,87.20
2017-12-30T03:07:03.326Z,87.20
2017-12-30T03:09:31.206Z,87.20
2017-12-30T03:11:59.607Z,87.10
2017-12-30T03:14:27.104Z,87.20
2017-12-30T03:16:55.010Z,87.30
2017-12-30T03:19:22.904Z,87.10
2017-12-30T03:21:50.410Z,87.20
2017-12-30T03:24:18.310Z,87.10
2017-12-30T03:26:45.830Z,87.00
2017-12-30T03:29:13.722Z,87.00
2017-12-30T03:31:41.244Z,87.00
2017-12-30T03:34:09.126Z,86.90
2017-12-30T03:36:36.614Z,87.00
2017-12-30T03:39:05.307Z,87.10
2017-12-30T03:41:33.355Z,87.10
2017-12-30T03:44:01.647Z,87.00
2017-12-30T03:46:29.541Z,87.00
2017-12-30T03:48:57.149Z,86.80
2017-12-30T03:51:24.638Z,87.00
2017-12-30T03:53:52.268Z,87.00
2017-12-30T03:56:20.162Z,87.00
2017-12-30T03:58:48.074Z,86.80
2017-12-30T04:01:15.562Z,87.00
2017-12-30T04:03:43.050Z,87.00
2017-12-30T04:06:10.989Z,86.90
2017-12-30T04:08:38.482Z,86.80
2017-12-30T04:11:06.399Z,86.80
2017-12-30T04:13:34.656Z,86.90
2017-12-30T04:16:02.623Z,86.90
2017-12-30T04:18:30.517Z,87.00
2017-12-30T04:20:58.427Z,86.90
2017-12-30T04:23:26.318Z,86.90
2017-12-30T04:25:53.841Z,86.80
2017-12-30T04:28:21.329Z,86.80
2017-12-30T04:30:48.841Z,86.80
2017-12-30T04:33:16.741Z,86.70
2017-12-30T04:35:44.237Z,86.80
2017-12-30T04:38:11.751Z,86.80
2017-12-30T04:40:39.268Z,86.90
2017-12-30T04:43:06.774Z,86.90
2017-12-30T04:45:34.662Z,87.00
2017-12-30T04:48:02.186Z,87.00
2017-12-30T04:50:29.679Z,87.00
2017-12-30T04:52:57.603Z,86.90
2017-12-30T04:55:25.106Z,86.90
2017-12-30T04:57:52.614Z,86.90
2017-12-30T05:00:20.506Z,86.90
2017-12-30T05:02:48.440Z,86.90
2017-12-30T05:05:16.333Z,86.80
2017-12-30T05:07:44.219Z,86.70
2017-12-30T05:10:11.739Z,86.70
2017-12-30T05:12:39.227Z,86.70
2017-12-30T05:15:06.745Z,86.80
2017-12-30T05:17:34.250Z,86.90
2017-12-30T05:20:01.767Z,86.80
2017-12-30T05:22:29.261Z,86.80
2017-12-30T05:24:57.187Z,86.70
2017-12-30T05:27:25.072Z,86.70
2017-12-30T05:29:52.716Z,86.60
2017-12-30T05:32:20.593Z,86.50
2017-12-30T05:34:48.519Z,86.50
2017-12-30T05:37:16.426Z,86.50
2017-12-30T05:39:44.859Z,86.30
2017-12-30T05:42:12.378Z,86.20
2017-12-30T05:44:40.286Z,86.20
2017-12-30T05:47:07.850Z,86.10
2017-12-30T05:49:35.752Z,86.20
2017-12-30T05:52:03.265Z,86.20
2017-12-30T05:54:30.775Z,86.20
2017-12-30T05:56:58.687Z,86.10
2017-12-30T05:59:26.579Z,86.30
2017-12-30T06:01:54.079Z,86.30
2017-12-30T06:04:21.989Z,86.30
2017-12-30T06:06:50.264Z,86.70
2017-12-30T06:09:17.785Z,86.30
2017-12-30T06:11:45.678Z,86.20
2017-12-30T06:14:13.593Z,86.10
2017-12-30T06:16:41.488Z,86.50
2017-12-30T06:19:09.394Z,86.70
2017-12-30T06:21:37.274Z,86.50
2017-12-30T06:24:05.191Z,87.00
2017-12-30T06:26:33.830Z,87.30
2017-12-30T06:29:01.366Z,87.60
2017-12-30T06:31:29.258Z,88.00
2017-12-30T06:33:57.171Z,88.10
2017-12-30T06:36:24.658Z,88.20
2017-12-30T06:38:52.571Z,88.30
2017-12-30T06:41:20.058Z,88.30
2017-12-30T06:43:47.574Z,88.30
2017-12-30T06:46:15.467Z,88.30
2017-12-30T06:48:42.958Z,88.40
2017-12-30T06:51:10.866Z,88.40
2017-12-30T06:53:38.358Z,88.40
2017-12-30T06:56:06.372Z,88.30
2017-12-30T06:58:33.869Z,88.20
2017-12-30T07:01:01.838Z,88.20
2017-12-30T07:03:29.318Z,88.30
2017-12-30T07:05:56.854Z,88.30
2017-12-30T07:08:24.366Z,88.20
2017-12-30T07:10:52.658Z,87.80
2017-12-30T07:13:20.160Z,88.10
2017-12-30T07:15:47.687Z,88.20
2017-12-30T07:18:15.209Z,88.40
2017-12-30T07:20:42.706Z,88.50
2017-12-30T07:23:10.994Z,88.60
2017-12-30T07:25:38.504Z,88.60
2017-12-30T07:28:06.409Z,88.70
2017-12-30T07:30:33.914Z,88.80
2017-12-30T07:33:01.428Z,88.90
2017-12-30T07:35:29.325Z,88.90
2017-12-30T07:37:56.852Z,88.80
2017-12-30T07:40:24.754Z,88.80
2017-12-30T07:42:52.278Z,88.70
2017-12-30T07:45:20.534Z,88.50
2017-12-30T07:47:48.065Z,88.60
2017-12-30T07:50:15.958Z,88.40
2017-12-30T07:52:43.859Z,88.40
2017-12-30T07:55:11.386Z,88.30
2017-12-30T07:57:38.945Z,88.20
2017-12-30T08:00:06.834Z,88.10
2017-12-30T08:02:34.327Z,87.70
2017-12-30T08:05:02.244Z,87.60
2017-12-30T08:07:30.142Z,87.50
2017-12-30T08:09:57.666Z,87.60
2017-12-30T08:12:25.179Z,87.70
2017-12-30T08:14:52.715Z,87.70
2017-12-30T08:17:20.210Z,87.80
2017-12-30T08:19:48.117Z,87.70
2017-12-30T08:22:15.627Z,87.50
2017-12-30T08:24:43.238Z,87.50
2017-12-30T08:27:10.714Z,87.50
2017-12-30T08:29:38.219Z,87.30
2017-12-30T08:32:05.741Z,87.10
2017-12-30T08:34:33.628Z,87.00
2017-12-30T08:37:01.547Z,87.00
2017-12-30T08:39:29.042Z,86.60
2017-12-30T08:41:56.555Z,86.50
2017-12-30T08:44:24.446Z,86.50
2017-12-30T08:46:52.358Z,86.50
2017-12-30T08:49:19.852Z,86.60
2017-12-30T08:51:47.384Z,86.50
2017-12-30T08:54:15.278Z,86.30
2017-12-30T08:56:43.199Z,86.10
2017-12-30T08:59:10.709Z,85.90
2017-12-30T09:01:38.606Z,85.90
2017-12-30T09:04:06.130Z,85.90
2017-12-30T09:06:34.026Z,85.80
2017-12-30T09:09:02.303Z,85.70
2017-12-30T09:11:29.799Z,85.60
2017-12-30T09:13:58.837Z,85.50
2017-12-30T09:16:26.730Z,85.40
2017-12-30T09:18:54.259Z,85.40
2017-12-30T09:21:22.145Z,85.30
2017-12-30T09:23:50.058Z,84.90
2017-12-30T09:26:18.053Z,84.90
2017-12-30T09:28:45.574Z,84.70
2017-12-30T09:31:13.090Z,84.70
2017-12-30T09:33:40.634Z,84.80
2017-12-30T09:36:08.127Z,84.90
2017-12-30T09:38:35.625Z,85.20
2017-12-30T09:41:03.140Z,85.40
2017-12-30T09:43:30.638Z,85.50
2017-12-30T09:45:58.548Z,85.70
2017-12-30T09:48:26.059Z,85.70
2017-12-30T09:50:53.679Z,85.80
2017-12-30T09:53:21.939Z,86.00
2017-12-30T09:55:49.450Z,86.00
2017-12-30T09:58:16.951Z,86.00
2017-12-30T10:00:44.877Z,86.00
2017-12-30T10:03:12.378Z,86.20
2017-12-30T10:05:40.323Z,86.20
2017-12-30T10:08:07.815Z,86.10
2017-12-30T10:10:35.714Z,86.10
2017-12-30T10:13:03.234Z,86.10
2017-12-30T10:15:31.137Z,86.10
2017-12-30T10:17:59.042Z,86.20
2017-12-30T10:20:28.282Z,86.10
2017-12-30T10:22:55.806Z,86.10
2017-12-30T10:25:23.708Z,86.20
2017-12-30T10:27:51.227Z,86.10
2017-12-30T10:30:19.227Z,86.30
2017-12-30T10:32:47.135Z,86.20
2017-12-30T10:35:14.623Z,86.30
2017-12-30T10:37:42.112Z,86.70
2017-12-30T10:40:09.637Z,86.90
2017-12-30T10:42:37.901Z,86.80
2017-12-30T10:45:05.422Z,87.00
2017-12-30T10:47:34.191Z,87.40
2017-12-30T10:50:01.711Z,87.60
2017-12-30T10:52:29.210Z,87.80
2017-12-30T10:54:57.114Z,87.80
2017-12-30T10:57:25.001Z,87.80
2017-12-30T10:59:53.658Z,88.10
2017-12-30T11:02:21.551Z,88.30
2017-12-30T11:04:50.203Z,88.60
2017-12-30T11:07:18.087Z,88.60
2017-12-30T11:09:45.614Z,88.70
2017-12-30T11:12:13.506Z,89.00
2017-12-30T11:14:41.399Z,89.10
2017-12-30T11:17:08.924Z,89.20
2017-12-30T11:19:36.422Z,89.50
2017-12-30T11:22:03.949Z,89.60
2017-12-30T11:24:31.446Z,89.60
2017-12-30T11:26:58.962Z,89.80
2017-12-30T11:29:26.458Z,89.90
2017-12-30T11:31:55.370Z,89.90
2017-12-30T11:34:23.254Z,89.90
2017-12-30T11:36:50.787Z,90.00
2017-12-30T11:39:18.298Z,90.00
2017-12-30T11:41:46.591Z,90.10
2017-12-30T11:44:14.079Z,90.10
2017-12-30T11:46:41.974Z,90.10
2017-12-30T11:49:09.492Z,90.10
2017-12-30T11:51:37.766Z,90.10
2017-12-30T11:54:05.700Z,90.10
2017-12-30T11:56:33.202Z,90.10
2017-12-30T11:59:00.731Z,90.20
2017-12-30T12:01:28.634Z,90.10
2017-12-30T12:03:56.150Z,90.10
2017-12-30T12:06:23.643Z,90.10
2017-12-30T12:08:51.142Z,90.20
2017-12-30T12:11:18.668Z,90.50
2017-12-30T12:13:46.158Z,90.50
2017-12-30T12:16:13.674Z,90.60
2017-12-30T12:18:41.593Z,90.70
2017-12-30T12:21:09.512Z,90.50
2017-12-30T12:23:37.006Z,90.50
2017-12-30T12:26:04.510Z,90.50
2017-12-30T12:28:32.018Z,90.50
2017-12-30T12:30:59.542Z,90.40
2017-12-30T12:33:27.042Z,90.50
2017-12-30T12:35:55.046Z,90.50
2017-12-30T12:38:22.555Z,90.40
2017-12-30T12:40:50.444Z,90.30
2017-12-30T12:43:17.957Z,90.40
2017-12-30T12:45:46.584Z,90.30
2017-12-30T12:48:14.490Z,90.30
2017-12-30T12:50:42.391Z,90.50
2017-12-30T12:53:10.666Z,90.40
2017-12-30T12:55:38.562Z,90.10
2017-12-30T12:58:06.088Z,90.40
2017-12-30T13:00:33.632Z,90.40
2017-12-30T13:03:01.575Z,90.40
2017-12-30T13:05:29.100Z,90.40
2017-12-30T13:07:57.002Z,90.50
2017-12-30T13:10:24.527Z,90.40
2017-12-30T13:12:52.018Z,90.40
2017-12-30T13:15:19.568Z,90.60
2017-12-30T13:17:47.075Z,90.30
2017-12-30T13:20:14.982Z,90.40
2017-12-30T13:22:42.466Z,90.50
2017-12-30T13:25:10.393Z,90.50
2017-12-30T13:27:37.891Z,90.50
2017-12-30T13:30:06.583Z,90.60
2017-12-30T13:32:34.520Z,90.50
2017-12-30T13:35:02.480Z,90.70
2017-12-30T13:37:30.415Z,90.70
2017-12-30T13:39:59.042Z,90.90
2017-12-30T13:42:26.953Z,90.80
2017-12-30T13:44:54.470Z,90.70
2017-12-30T13:47:21.987Z,90.60
2017-12-30T13:49:49.520Z,90.80
2017-12-30T13:52:17.430Z,90.70
2017-12-30T13:54:44.939Z,90.80
2017-12-30T13:57:12.462Z,90.80
2017-12-30T13:59:39.958Z,90.90
2017-12-30T14:02:07.488Z,90.90
2017-12-30T14:04:34.990Z,90.90
2017-12-30T14:07:02.487Z,90.80
2017-12-30T14:09:29.998Z,91.00
2017-12-30T14:11:57.491Z,91.00
2017-12-30T14:14:25.482Z,91.20
2017-12-30T14:16:53.386Z,91.20
2017-12-30T14:19:21.303Z,91.50
2017-12-30T14:21:48.800Z,91.40
2017-12-30T14:24:16.340Z,91.60
2017-12-30T14:26:43.870Z,91.60
2017-12-30T14:29:11.773Z,91.60
2017-12-30T14:31:39.287Z,91.60
2017-12-30T14:34:06.826Z,91.60
2017-12-30T14:36:34.734Z,91.70
2017-12-30T14:39:02.281Z,91.70
2017-12-30T14:41:29.883Z,91.80
2017-12-30T14:43:57.369Z,91.80
2017-12-30T14:46:25.283Z,91.90
2017-12-30T14:48:52.786Z,92.00
2017-12-30T14:51:20.326Z,92.10
2017-12-30T14:53:48.220Z,92.10
2017-12-30T14:56:16.186Z,92.00
2017-12-30T14:58:44.098Z,92.00
2017-12-30T15:01:11.589Z,92.10
2017-12-30T15:03:40.246Z,92.10
2017-12-30T15:06:07.739Z,92.10
2017-12-30T15:08:35.261Z,92.10
2017-12-30T15:11:03.192Z,91.90
2017-12-30T15:13:31.159Z,92.00
2017-12-30T15:15:58.701Z,91.90
2017-12-30T15:18:26.214Z,91.80
2017-12-30T15:20:54.966Z,91.80
2017-12-30T15:23:22.463Z,91.70
2017-12-30T15:25:50.019Z,91.60
2017-12-30T15:28:17.593Z,91.60
2017-12-30T15:30:45.920Z,91.70
2017-12-30T15:33:13.830Z,91.40
2017-12-30T15:35:41.392Z,91.70
2017-12-30T15:38:08.898Z,91.70
2017-12-30T15:40:36.814Z,91.70
2017-12-30T15:43:04.306Z,91.70
2017-12-30T15:45:33.353Z,91.70
2017-12-30T15:48:00.854Z,91.70
2017-12-30T15:50:28.345Z,91.60
2017-12-30T15:52:55.926Z,91.50
2017-12-30T15:55:23.407Z,91.50
2017-12-30T15:57:51.369Z,91.60
2017-12-30T16:00:19.305Z,91.70
2017-12-30T16:02:46.835Z,91.60
2017-12-30T16:05:14.721Z,91.40
2017-12-30T16:07:42.246Z,91.70
2017-12-30T16:10:10.186Z,91.60
2017-12-30T16:12:38.059Z,91.70
2017-12-30T16:15:05.550Z,91.60
2017-12-30T16:17:33.069Z,91.50
2017-12-30T16:20:00.954Z,91.70
2017-12-30T16:22:28.884Z,91.60
2017-12-30T16:24:56.445Z,91.60
2017-12-30T16:27:24.338Z,91.60
2017-12-30T16:29:52.242Z,91.60
2017-12-30T16:32:19.780Z,91.60
2017-12-30T16:34:47.291Z,91.70
2017-12-30T16:37:14.782Z,91.60
2017-12-30T16:39:42.695Z,91.50
2017-12-30T16:42:10.595Z,91.60
2017-12-30T16:44:38.509Z,91.60
2017-12-30T16:47:06.007Z,91.50
2017-12-30T16:49:33.918Z,91.50
2017-12-30T16:52:01.814Z,91.40
2017-12-30T16:54:29.330Z,91.40
2017-12-30T16:56:57.275Z,91.30
2017-12-30T16:59:24.802Z,91.40
2017-12-30T17:01:52.302Z,91.30
2017-12-30T17:04:19.806Z,91.30
2017-12-30T17:06:47.395Z,91.30
2017-12-30T17:09:14.894Z,91.30
2017-12-30T17:11:42.456Z,91.10
2017-12-30T17:14:10.342Z,91.10
2017-12-30T17:16:37.861Z,91.20
2017-12-30T17:19:05.351Z,91.20
2017-12-30T17:21:32.870Z,91.20
2017-12-30T17:24:01.549Z,91.10
2017-12-30T17:26:29.446Z,91.00
2017-12-30T17:28:56.956Z,90.90
2017-12-30T17:31:25.264Z,90.80
2017-12-30T17:33:53.266Z,90.80
2017-12-30T17:36:21.534Z,90.80
2017-12-30T17:38:49.058Z,90.80
2017-12-30T17:41:16.586Z,90.80
2017-12-30T17:43:44.133Z,90.70
2017-12-30T17:46:11.691Z,90.90
2017-12-30T17:48:40.022Z,90.90
2017-12-30T17:51:07.521Z,90.70
2017-12-30T17:53:35.099Z,90.70
2017-12-30T17:56:03.421Z,90.60
2017-12-30T17:58:31.388Z,90.50
2017-12-30T18:00:59.315Z,90.50
2017-12-30T18:03:26.886Z,90.40
2017-12-30T18:05:54.425Z,90.40
2017-12-30T18:08:21.987Z,90.50
2017-12-30T18:10:49.903Z,90.50
2017-12-30T18:13:17.418Z,90.40
2017-12-30T18:15:45.367Z,90.40
2017-12-30T18:18:12.927Z,90.40
2017-12-30T18:20:40.482Z,90.40
2017-12-30T18:23:08.058Z,90.30
2017-12-30T18:25:35.609Z,90.40
2017-12-30T18:28:03.580Z,90.40
2017-12-30T18:33:00.037Z,90.40
2017-12-30T18:35:27.958Z,90.30
2017-12-30T18:37:55.506Z,90.30
2017-12-30T18:40:23.476Z,90.30
2017-12-30T18:42:51.007Z,90.20
2017-12-30T18:45:18.576Z,90.10
2017-12-30T18:47:46.113Z,90.10
2017-12-30T18:50:13.666Z,90.00
2017-12-30T18:52:41.242Z,90.10
2017-12-30T18:55:08.738Z,90.10
2017-12-30T18:57:36.291Z,90.10
2017-12-30T19:00:03.852Z,90.10
2017-12-30T19:02:31.426Z,90.10
2017-12-30T19:04:59.366Z,90.10
2017-12-30T19:07:26.928Z,89.90
2017-12-30T19:09:54.870Z,89.80
2017-12-30T19:12:22.414Z,89.90
2017-12-30T19:14:49.978Z,89.90
2017-12-30T19:17:17.470Z,89.80
2017-12-30T19:19:45.037Z,90.00
2017-12-30T19:22:12.598Z,89.80
2017-12-30T19:24:40.569Z,89.80
2017-12-30T19:27:08.501Z,89.60
2017-12-30T19:29:36.065Z,89.60
2017-12-30T19:32:03.572Z,89.60
2017-12-30T19:34:31.102Z,89.70
2017-12-30T19:36:59.036Z,89.60
2017-12-30T19:39:26.581Z,89.60
2017-12-30T19:41:54.629Z,89.60
2017-12-30T19:44:22.941Z,89.60
2017-12-30T19:46:50.571Z,89.70
2017-12-30T19:49:18.115Z,89.70
2017-12-30T19:51:45.694Z,89.70
2017-12-30T19:54:13.653Z,89.90
2017-12-30T19:56:41.225Z,90.10
2017-12-30T19:59:08.789Z,90.40
2017-12-30T20:01:37.127Z,90.40
2017-12-30T20:04:05.886Z,90.80
2017-12-30T20:06:33.441Z,90.90
2017-12-30T20:09:00.999Z,91.20
2017-12-30T20:11:28.570Z,91.20
2017-12-30T20:13:56.528Z,91.20
2017-12-30T20:16:24.866Z,91.30
2017-12-30T20:18:52.580Z,91.20
2017-12-30T20:21:20.544Z,91.20
2017-12-30T20:23:48.117Z,91.20
2017-12-30T20:26:16.065Z,91.20
2017-12-30T20:28:44.401Z,91.00
2017-12-30T20:31:11.959Z,91.00
2017-12-30T20:33:39.933Z,91.00
2017-12-30T20:36:07.482Z,91.00
2017-12-30T20:38:35.066Z,91.00
2017-12-30T20:41:02.614Z,90.80
2017-12-30T20:43:30.586Z,90.80
2017-12-30T20:45:58.121Z,90.80
2017-12-30T20:48:26.093Z,90.70
2017-12-30T20:50:53.640Z,90.80
2017-12-30T20:53:21.992Z,90.70
2017-12-30T20:55:49.542Z,90.70
2017-12-30T20:58:17.086Z,90.70
2017-12-30T21:00:44.645Z,90.70
2017-12-30T21:03:12.688Z,90.80
2017-12-30T21:05:40.253Z,90.90
2017-12-30T21:08:07.795Z,90.90
2017-12-30T21:10:35.361Z,91.00
2017-12-30T21:13:02.901Z,91.10
2017-12-30T21:15:30.448Z,91.20
2017-12-30T21:17:58.409Z,91.30
2017-12-30T21:20:25.958Z,91.30
2017-12-30T21:22:53.925Z,91.20
2017-12-30T21:25:21.873Z,91.40
2017-12-30T21:27:49.448Z,91.40
2017-12-30T21:30:17.021Z,91.50
2017-12-30T21:32:44.989Z,91.50
2017-12-30T21:35:12.525Z,91.50
2017-12-30T21:37:40.934Z,91.60
2017-12-30T21:40:08.491Z,91.60
2017-12-30T21:42:36.071Z,91.70
2017-12-30T21:45:03.630Z,91.60
2017-12-30T21:47:31.177Z,91.70
2017-12-30T21:49:58.741Z,91.70
2017-12-30T21:52:26.686Z,91.80
2017-12-30T21:54:54.249Z,91.70
2017-12-30T21:57:21.794Z,91.80
2017-12-30T21:59:49.362Z,91.80
2017-12-30T22:02:16.909Z,91.90
2017-12-30T22:04:44.474Z,91.80
2017-12-30T22:07:12.426Z,91.90
2017-12-30T22:09:40.001Z,91.90
2017-12-30T22:12:07.546Z,91.90
2017-12-30T22:14:35.517Z,91.90
2017-12-30T22:17:03.066Z,91.90
2017-12-30T22:19:30.654Z,92.00
2017-12-30T22:21:58.197Z,92.10
2017-12-30T22:24:25.745Z,92.10
2017-12-30T22:26:53.330Z,92.10
2017-12-30T22:29:20.873Z,92.10
2017-12-30T22:31:48.445Z,92.10
2017-12-30T22:34:16.010Z,92.20
2017-12-30T22:36:43.586Z,92.10
2017-12-30T22:39:11.129Z,92.20
2017-12-30T22:41:38.689Z,92.00
2017-12-30T22:44:06.620Z,92.10
2017-12-30T22:46:34.573Z,92.00
2017-12-30T22:49:02.527Z,92.00
2017-12-30T22:51:30.116Z,91.90
2017-12-30T22:53:57.670Z,91.80
2017-12-30T22:56:25.616Z,91.80
2017-12-30T22:58:53.176Z,91.80
2017-12-30T23:01:21.119Z,91.80
2017-12-30T23:03:48.689Z,91.80
2017-12-30T23:06:16.231Z,91.80
2017-12-30T23:08:43.794Z,91.80
2017-12-30T23:11:12.102Z,91.90
2017-12-30T23:13:39.676Z,91.90
2017-12-30T23:16:07.627Z,91.90
2017-12-30T23:18:35.623Z,91.90
2017-12-30T23:21:03.569Z,91.90
2017-12-30T23:23:31.505Z,91.90
2017-12-30T23:25:59.065Z,91.80
2017-12-30T23:28:27.377Z,91.70
2017-12-30T23:30:55.344Z,91.60
2017-12-30T23:33:23.282Z,91.60
2017-12-30T23:35:50.841Z,91.60
2017-12-30T23:38:18.398Z,91.60
2017-12-30T23:40:45.970Z,91.60
2017-12-30T23:43:13.918Z,91.60
2017-12-30T23:45:41.489Z,91.40
2017-12-30T23:48:09.433Z,91.30
2017-12-30T23:50:36.973Z,91.30
2017-12-30T23:53:05.021Z,91.30
2017-12-30T23:55:32.565Z,91.30
2017-12-30T23:58:00.515Z,91.20
